createdAt,value
2023-03-29T00:03:22.132Z,7.15
2023-03-29T00:13:22.829Z,7.19
2023-03-29T00:23:22.901Z,7.22
2023-03-29T00:33:23.896Z,7.24
2023-03-29T00:43:23.794Z,7.26
2023-03-29T00:53:25.727Z,7.30
2023-03-29T01:03:26.966Z,7.35
2023-03-29T01:13:27.444Z,7.40
2023-03-29T01:23:27.952Z,7.44
2023-03-29T01:33:27.921Z,7.46
2023-03-29T01:43:27.965Z,7.47
2023-03-29T01:53:27.936Z,7.46
2023-03-29T02:03:30.050Z,7.46
2023-03-29T02:13:29.913Z,7.49
2023-03-29T02:23:30.086Z,7.56
2023-03-29T02:33:30.801Z,7.63
2023-03-29T02:43:31.172Z,7.71
2023-03-29T02:53:31.619Z,7.78
2023-03-29T03:03:33.325Z,7.84
2023-03-29T03:13:34.103Z,7.90
2023-03-29T03:23:34.711Z,7.97
2023-03-29T03:33:54.294Z,8.03
2023-03-29T03:43:54.813Z,8.08
2023-03-29T03:54:02.815Z,8.13
2023-03-29T04:04:04.894Z,8.17
2023-03-29T04:14:24.003Z,8.20
2023-03-29T04:24:26.444Z,8.25
2023-03-29T04:34:27.352Z,8.31
2023-03-29T04:44:29.528Z,8.31
2023-03-29T04:54:49.149Z,8.26
2023-03-29T05:04:52.806Z,8.19
2023-03-29T05:14:54.145Z,8.10
2023-03-29T05:24:55.551Z,8.04
2023-03-29T05:34:55.703Z,8.04
2023-03-29T05:44:57.008Z,8.11
2023-03-29T05:54:57.436Z,8.23
2023-03-29T06:04:59.236Z,8.43
2023-03-29T06:15:03.082Z,8.68
2023-03-29T06:25:05.808Z,8.91
2023-03-29T06:35:11.265Z,9.11
2023-03-29T06:45:12.277Z,9.26
2023-03-29T06:55:12.790Z,9.45
2023-03-29T07:05:18.890Z,9.71
2023-03-29T07:15:33.283Z,9.99
2023-03-29T07:25:34.144Z,10.26
2023-03-29T07:35:35.136Z,10.55
2023-03-29T07:45:44.189Z,10.85
2023-03-29T07:55:48.665Z,11.04
2023-03-29T08:05:49.894Z,11.12
2023-03-29T08:15:55.215Z,11.23
2023-03-29T08:25:55.519Z,11.39
2023-03-29T08:35:57.581Z,11.72
2023-03-29T08:46:00.280Z,12.24
2023-03-29T08:56:08.504Z,12.83
2023-03-29T09:06:09.616Z,13.21
2023-03-29T09:16:11.415Z,13.50
2023-03-29T09:26:14.029Z,13.94
2023-03-29T09:36:14.835Z,14.43
2023-03-29T09:46:16.150Z,15.12
2023-03-29T09:56:22.035Z,16.08
2023-03-29T10:06:25.104Z,16.95
2023-03-29T10:16:25.735Z,17.60
2023-03-29T10:26:26.271Z,18.23
2023-03-29T10:36:26.627Z,18.86
2023-03-29T10:46:26.726Z,19.09
2023-03-29T10:56:27.501Z,19.50
2023-03-29T11:06:27.657Z,20.33
2023-03-29T11:16:28.343Z,21.09
2023-03-29T11:26:28.679Z,21.69
2023-03-29T11:36:29.238Z,22.10
2023-03-29T11:46:29.769Z,22.26
2023-03-29T11:56:29.688Z,22.37
2023-03-29T12:06:29.744Z,22.63
2023-03-29T12:16:30.687Z,22.84
2023-03-29T12:26:32.105Z,22.90
2023-03-29T12:36:37.602Z,22.80
2023-03-29T12:46:37.873Z,22.65
2023-03-29T12:56:37.929Z,22.70
2023-03-29T13:06:37.825Z,22.97
2023-03-29T13:16:38.373Z,23.31
2023-03-29T13:26:38.903Z,23.57
2023-03-29T13:36:48.008Z,23.40
2023-03-29T13:46:47.879Z,22.78
2023-03-29T13:56:50.030Z,22.18
2023-03-29T14:06:50.762Z,21.68
2023-03-29T14:16:50.969Z,21.30
2023-03-29T14:26:50.892Z,21.18
2023-03-29T14:36:52.950Z,21.09
2023-03-29T14:46:52.897Z,20.96
2023-03-29T14:56:53.409Z,20.85
2023-03-29T15:06:54.753Z,20.68
2023-03-29T15:16:54.979Z,20.52
2023-03-29T15:26:55.182Z,20.34
2023-03-29T15:36:56.921Z,20.07
2023-03-29T15:46:59.174Z,19.66
2023-03-29T15:56:59.104Z,19.20
2023-03-29T16:06:59.200Z,18.82
2023-03-29T16:16:59.233Z,18.56
2023-03-29T16:27:00.794Z,18.36
2023-03-29T16:37:07.268Z,18.18
2023-03-29T16:47:07.146Z,18.01
2023-03-29T16:57:07.271Z,17.88
2023-03-29T17:07:07.198Z,17.70
2023-03-29T17:17:07.150Z,17.48
2023-03-29T17:27:07.234Z,17.31
2023-03-29T17:37:07.194Z,17.18
2023-03-29T17:47:07.317Z,17.04
2023-03-29T17:57:07.254Z,16.88
2023-03-29T18:07:07.292Z,16.66
2023-03-29T18:17:07.334Z,16.39
2023-03-29T18:27:07.339Z,16.14
2023-03-29T18:37:09.316Z,15.91
2023-03-29T18:47:09.319Z,15.70
2023-03-29T18:57:09.379Z,15.54
2023-03-29T19:07:09.543Z,15.42
2023-03-29T19:17:09.402Z,15.34
2023-03-29T19:27:11.379Z,15.27
2023-03-29T19:37:11.907Z,15.20
2023-03-29T19:47:12.568Z,15.13
2023-03-29T19:57:12.505Z,15.06
2023-03-29T20:07:12.565Z,14.99
2023-03-29T20:17:12.684Z,14.89
2023-03-29T20:27:12.545Z,14.77
2023-03-29T20:37:14.198Z,14.67
2023-03-29T20:47:16.236Z,14.58
2023-03-29T20:57:16.623Z,14.50
2023-03-29T21:07:17.180Z,14.43
2023-03-29T21:17:17.593Z,14.38
2023-03-29T21:27:17.486Z,14.34
2023-03-29T21:37:18.055Z,14.32
2023-03-29T21:47:18.562Z,14.33
2023-03-29T21:57:18.601Z,14.36
2023-03-29T22:07:20.568Z,14.37
2023-03-29T22:17:22.441Z,14.33
2023-03-29T22:27:22.637Z,14.31
2023-03-29T22:37:22.659Z,14.29
2023-03-29T22:47:22.731Z,14.23
2023-03-29T22:57:22.708Z,14.18
2023-03-29T23:07:22.663Z,14.14
2023-03-29T23:17:22.601Z,14.05
2023-03-29T23:27:22.664Z,13.93
2023-03-29T23:37:23.135Z,13.85
2023-03-29T23:47:23.834Z,13.80
2023-03-29T23:57:25.625Z,13.81
